sensor_id;sensor_type;location;lat;lon;timestamp;P1;durP1;ratioP1;P2;durP2;ratioP2
18651;SDS011;9455;54.302;10.124;2023-04-24T00:01:35;4.87;;;3.70;;
18651;SDS011;9455;54.302;10.124;2023-04-24T00:04:02;4.63;;;4.17;;
18651;SDS011;9455;54.302;10.124;2023-04-24T00:06:30;5.83;;;3.93;;
18651;SDS011;9455;54.302;10.124;2023-04-24T00:08:58;6.13;;;4.50;;
18651;SDS011;9455;54.302;10.124;2023-04-24T00:11:24;4.70;;;4.03;;
18651;SDS011;9455;54.302;10.124;2023-04-24T00:13:51;5.93;;;4.53;;
18651;SDS011;9455;54.302;10.124;2023-04-24T00:16:18;4.90;;;4.00;;
18651;SDS011;9455;54.302;10.124;2023-04-24T00:18:45;4.63;;;3.83;;
18651;SDS011;9455;54.302;10.124;2023-04-24T00:21:12;5.67;;;4.83;;
18651;SDS011;9455;54.302;10.124;2023-04-24T00:23:41;7.13;;;4.57;;
18651;SDS011;9455;54.302;10.124;2023-04-24T00:26:08;4.47;;;3.87;;
18651;SDS011;9455;54.302;10.124;2023-04-24T00:28:35;4.73;;;4.30;;
18651;SDS011;9455;54.302;10.124;2023-04-24T00:31:02;4.50;;;4.10;;
18651;SDS011;9455;54.302;10.124;2023-04-24T00:33:28;4.13;;;3.83;;
18651;SDS011;9455;54.302;10.124;2023-04-24T00:35:55;5.23;;;4.23;;
18651;SDS011;9455;54.302;10.124;2023-04-24T00:38:22;5.23;;;4.40;;
18651;SDS011;9455;54.302;10.124;2023-04-24T00:40:49;9.47;;;4.80;;
18651;SDS011;9455;54.302;10.124;2023-04-24T00:43:16;6.10;;;4.70;;
18651;SDS011;9455;54.302;10.124;2023-04-24T00:45:43;8.10;;;4.73;;
18651;SDS011;9455;54.302;10.124;2023-04-24T00:48:10;5.10;;;4.60;;
18651;SDS011;9455;54.302;10.124;2023-04-24T00:50:38;4.87;;;4.10;;
18651;SDS011;9455;54.302;10.124;2023-04-24T00:53:05;6.63;;;4.57;;
18651;SDS011;9455;54.302;10.124;2023-04-24T00:55:31;8.53;;;4.50;;
18651;SDS011;9455;54.302;10.124;2023-04-24T00:57:59;5.50;;;4.60;;
18651;SDS011;9455;54.302;10.124;2023-04-24T01:00:26;8.80;;;4.43;;
18651;SDS011;9455;54.302;10.124;2023-04-24T01:02:53;6.20;;;4.70;;
18651;SDS011;9455;54.302;10.124;2023-04-24T01:05:20;6.57;;;4.70;;
18651;SDS011;9455;54.302;10.124;2023-04-24T01:07:47;10.63;;;5.03;;
18651;SDS011;9455;54.302;10.124;2023-04-24T01:10:14;5.33;;;4.40;;
18651;SDS011;9455;54.302;10.124;2023-04-24T01:12:42;4.63;;;4.23;;
18651;SDS011;9455;54.302;10.124;2023-04-24T01:15:11;5.83;;;4.43;;
18651;SDS011;9455;54.302;10.124;2023-04-24T01:17:37;4.77;;;4.33;;
18651;SDS011;9455;54.302;10.124;2023-04-24T01:20:05;4.17;;;3.80;;
18651;SDS011;9455;54.302;10.124;2023-04-24T01:22:34;8.80;;;4.10;;
18651;SDS011;9455;54.302;10.124;2023-04-24T01:25:01;7.40;;;4.27;;
18651;SDS011;9455;54.302;10.124;2023-04-24T01:27:28;5.10;;;3.77;;
18651;SDS011;9455;54.302;10.124;2023-04-24T01:29:55;8.33;;;4.13;;
18651;SDS011;9455;54.302;10.124;2023-04-24T01:32:21;6.40;;;4.23;;
18651;SDS011;9455;54.302;10.124;2023-04-24T01:34:48;4.27;;;3.87;;
18651;SDS011;9455;54.302;10.124;2023-04-24T01:37:15;5.33;;;4.20;;
18651;SDS011;9455;54.302;10.124;2023-04-24T01:39:43;6.03;;;4.80;;
18651;SDS011;9455;54.302;10.124;2023-04-24T01:42:09;5.23;;;4.57;;
18651;SDS011;9455;54.302;10.124;2023-04-24T01:44:36;5.23;;;4.43;;
18651;SDS011;9455;54.302;10.124;2023-04-24T01:47:03;5.67;;;4.30;;
18651;SDS011;9455;54.302;10.124;2023-04-24T01:49:30;4.30;;;3.90;;
18651;SDS011;9455;54.302;10.124;2023-04-24T01:51:57;5.40;;;4.20;;
18651;SDS011;9455;54.302;10.124;2023-04-24T01:54:24;4.63;;;4.17;;
18651;SDS011;9455;54.302;10.124;2023-04-24T01:56:52;4.63;;;4.23;;
18651;SDS011;9455;54.302;10.124;2023-04-24T01:59:18;10.13;;;4.10;;
18651;SDS011;9455;54.302;10.124;2023-04-24T02:01:47;4.40;;;4.00;;
18651;SDS011;9455;54.302;10.124;2023-04-24T02:04:14;5.53;;;3.90;;
18651;SDS011;9455;54.302;10.124;2023-04-24T02:06:40;4.80;;;3.67;;
18651;SDS011;9455;54.302;10.124;2023-04-24T02:09:07;5.97;;;3.80;;
18651;SDS011;9455;54.302;10.124;2023-04-24T02:11:34;5.13;;;4.27;;
18651;SDS011;9455;54.302;10.124;2023-04-24T02:14:01;5.63;;;4.03;;
18651;SDS011;9455;54.302;10.124;2023-04-24T02:16:28;3.40;;;3.20;;
18651;SDS011;9455;54.302;10.124;2023-04-24T02:18:57;5.73;;;3.80;;
18651;SDS011;9455;54.302;10.124;2023-04-24T02:21:24;4.43;;;4.10;;
18651;SDS011;9455;54.302;10.124;2023-04-24T02:23:52;4.30;;;3.90;;
18651;SDS011;9455;54.302;10.124;2023-04-24T02:26:19;4.17;;;3.87;;
18651;SDS011;9455;54.302;10.124;2023-04-24T02:28:45;7.37;;;4.30;;
18651;SDS011;9455;54.302;10.124;2023-04-24T02:31:13;6.17;;;3.90;;
18651;SDS011;9455;54.302;10.124;2023-04-24T02:33:40;5.03;;;4.57;;
18651;SDS011;9455;54.302;10.124;2023-04-24T02:36:06;4.87;;;4.30;;
18651;SDS011;9455;54.302;10.124;2023-04-24T02:38:33;5.00;;;4.37;;
18651;SDS011;9455;54.302;10.124;2023-04-24T02:41:00;5.57;;;4.10;;
18651;SDS011;9455;54.302;10.124;2023-04-24T02:43:27;5.67;;;4.63;;
18651;SDS011;9455;54.302;10.124;2023-04-24T02:45:53;7.43;;;5.33;;
18651;SDS011;9455;54.302;10.124;2023-04-24T02:48:21;7.03;;;5.00;;
18651;SDS011;9455;54.302;10.124;2023-04-24T02:50:48;8.30;;;4.87;;
18651;SDS011;9455;54.302;10.124;2023-04-24T02:53:15;10.70;;;4.83;;
18651;SDS011;9455;54.302;10.124;2023-04-24T02:55:42;8.53;;;4.80;;
18651;SDS011;9455;54.302;10.124;2023-04-24T02:58:08;7.70;;;4.87;;
18651;SDS011;9455;54.302;10.124;2023-04-24T03:00:35;6.23;;;5.23;;
18651;SDS011;9455;54.302;10.124;2023-04-24T03:03:02;5.03;;;4.50;;
18651;SDS011;9455;54.302;10.124;2023-04-24T03:05:30;7.33;;;4.20;;
18651;SDS011;9455;54.302;10.124;2023-04-24T03:07:57;5.97;;;4.83;;
18651;SDS011;9455;54.302;10.124;2023-04-24T03:10:23;5.37;;;4.40;;
18651;SDS011;9455;54.302;10.124;2023-04-24T03:12:50;5.83;;;4.97;;
18651;SDS011;9455;54.302;10.124;2023-04-24T03:15:17;7.53;;;4.40;;
18651;SDS011;9455;54.302;10.124;2023-04-24T03:17:44;6.50;;;4.43;;
18651;SDS011;9455;54.302;10.124;2023-04-24T03:20:10;6.03;;;4.63;;
18651;SDS011;9455;54.302;10.124;2023-04-24T03:22:38;7.47;;;5.47;;
18651;SDS011;9455;54.302;10.124;2023-04-24T03:25:05;9.90;;;4.73;;
18651;SDS011;9455;54.302;10.124;2023-04-24T03:27:34;6.00;;;4.13;;
18651;SDS011;9455;54.302;10.124;2023-04-24T03:30:00;8.43;;;4.77;;
18651;SDS011;9455;54.302;10.124;2023-04-24T03:32:27;5.70;;;4.13;;
18651;SDS011;9455;54.302;10.124;2023-04-24T03:34:53;4.07;;;3.67;;
18651;SDS011;9455;54.302;10.124;2023-04-24T03:37:20;5.43;;;4.93;;
18651;SDS011;9455;54.302;10.124;2023-04-24T03:39:48;5.10;;;4.23;;
18651;SDS011;9455;54.302;10.124;2023-04-24T03:42:14;4.57;;;4.17;;
18651;SDS011;9455;54.302;10.124;2023-04-24T03:44:41;7.43;;;3.80;;
18651;SDS011;9455;54.302;10.124;2023-04-24T03:47:07;4.30;;;3.90;;
18651;SDS011;9455;54.302;10.124;2023-04-24T03:49:34;5.07;;;4.17;;
18651;SDS011;9455;54.302;10.124;2023-04-24T03:52:00;6.07;;;4.03;;
18651;SDS011;9455;54.302;10.124;2023-04-24T03:54:27;5.20;;;4.17;;
18651;SDS011;9455;54.302;10.124;2023-04-24T03:56:56;8.17;;;4.10;;
18651;SDS011;9455;54.302;10.124;2023-04-24T03:59:22;4.50;;;4.20;;
18651;SDS011;9455;54.302;10.124;2023-04-24T04:01:49;3.70;;;3.40;;
18651;SDS011;9455;54.302;10.124;2023-04-24T04:04:15;4.80;;;4.03;;
18651;SDS011;9455;54.302;10.124;2023-04-24T04:06:42;5.67;;;4.30;;
18651;SDS011;9455;54.302;10.124;2023-04-24T04:09:09;3.87;;;3.53;;
18651;SDS011;9455;54.302;10.124;2023-04-24T04:11:35;4.90;;;3.67;;
18651;SDS011;9455;54.302;10.124;2023-04-24T04:14:03;3.80;;;3.50;;
18651;SDS011;9455;54.302;10.124;2023-04-24T04:16:30;5.60;;;4.57;;
18651;SDS011;9455;54.302;10.124;2023-04-24T04:18:57;5.77;;;4.37;;
18651;SDS011;9455;54.302;10.124;2023-04-24T04:21:23;5.43;;;3.97;;
18651;SDS011;9455;54.302;10.124;2023-04-24T04:23:51;6.33;;;3.60;;
18651;SDS011;9455;54.302;10.124;2023-04-24T04:26:18;5.37;;;3.30;;
18651;SDS011;9455;54.302;10.124;2023-04-24T04:28:46;4.03;;;2.90;;
18651;SDS011;9455;54.302;10.124;2023-04-24T04:31:15;3.40;;;3.13;;
18651;SDS011;9455;54.302;10.124;2023-04-24T04:33:42;3.27;;;3.07;;
18651;SDS011;9455;54.302;10.124;2023-04-24T04:36:08;6.37;;;3.20;;
18651;SDS011;9455;54.302;10.124;2023-04-24T04:38:35;4.80;;;2.97;;
18651;SDS011;9455;54.302;10.124;2023-04-24T04:41:02;3.53;;;2.93;;
18651;SDS011;9455;54.302;10.124;2023-04-24T04:43:29;3.23;;;3.03;;
18651;SDS011;9455;54.302;10.124;2023-04-24T04:45:56;2.83;;;2.60;;
18651;SDS011;9455;54.302;10.124;2023-04-24T04:48:25;6.37;;;3.30;;
18651;SDS011;9455;54.302;10.124;2023-04-24T04:50:52;3.07;;;2.43;;
18651;SDS011;9455;54.302;10.124;2023-04-24T04:53:18;2.53;;;2.43;;
18651;SDS011;9455;54.302;10.124;2023-04-24T04:55:45;2.40;;;2.20;;
18651;SDS011;9455;54.302;10.124;2023-04-24T04:58:13;14.47;;;7.93;;
18651;SDS011;9455;54.302;10.124;2023-04-24T05:00:39;3.77;;;3.17;;
18651;SDS011;9455;54.302;10.124;2023-04-24T05:03:06;3.93;;;2.70;;
18651;SDS011;9455;54.302;10.124;2023-04-24T05:05:34;3.83;;;2.53;;
18651;SDS011;9455;54.302;10.124;2023-04-24T05:08:05;2.20;;;2.10;;
18651;SDS011;9455;54.302;10.124;2023-04-24T05:10:32;1.90;;;1.90;;
18651;SDS011;9455;54.302;10.124;2023-04-24T05:12:58;2.33;;;2.13;;
18651;SDS011;9455;54.302;10.124;2023-04-24T05:15:26;3.80;;;2.00;;
18651;SDS011;9455;54.302;10.124;2023-04-24T05:17:52;2.07;;;1.97;;
18651;SDS011;9455;54.302;10.124;2023-04-24T05:20:19;2.40;;;2.20;;
18651;SDS011;9455;54.302;10.124;2023-04-24T05:22:47;2.27;;;2.17;;
18651;SDS011;9455;54.302;10.124;2023-04-24T05:25:13;2.03;;;1.93;;
18651;SDS011;9455;54.302;10.124;2023-04-24T05:27:40;2.40;;;2.20;;
18651;SDS011;9455;54.302;10.124;2023-04-24T05:30:07;2.53;;;2.43;;
18651;SDS011;9455;54.302;10.124;2023-04-24T05:32:35;2.10;;;2.10;;
18651;SDS011;9455;54.302;10.124;2023-04-24T05:35:02;2.40;;;2.23;;
18651;SDS011;9455;54.302;10.124;2023-04-24T05:37:29;3.43;;;2.53;;
18651;SDS011;9455;54.302;10.124;2023-04-24T05:39:57;2.17;;;2.17;;
18651;SDS011;9455;54.302;10.124;2023-04-24T05:42:23;2.60;;;2.40;;
18651;SDS011;9455;54.302;10.124;2023-04-24T05:44:50;2.20;;;2.10;;
18651;SDS011;9455;54.302;10.124;2023-04-24T05:47:18;1.90;;;1.87;;
18651;SDS011;9455;54.302;10.124;2023-04-24T05:49:46;3.63;;;2.03;;
18651;SDS011;9455;54.302;10.124;2023-04-24T05:52:13;2.93;;;2.27;;
18651;SDS011;9455;54.302;10.124;2023-04-24T05:54:40;2.17;;;2.07;;
18651;SDS011;9455;54.302;10.124;2023-04-24T05:57:07;3.73;;;2.17;;
18651;SDS011;9455;54.302;10.124;2023-04-24T05:59:36;5.37;;;2.40;;
18651;SDS011;9455;54.302;10.124;2023-04-24T06:02:03;2.80;;;2.57;;
18651;SDS011;9455;54.302;10.124;2023-04-24T06:04:30;4.07;;;2.13;;
18651;SDS011;9455;54.302;10.124;2023-04-24T06:06:58;2.00;;;1.90;;
18651;SDS011;9455;54.302;10.124;2023-04-24T06:09:25;2.03;;;1.93;;
18651;SDS011;9455;54.302;10.124;2023-04-24T06:11:52;2.30;;;2.10;;
18651;SDS011;9455;54.302;10.124;2023-04-24T06:14:20;2.30;;;2.20;;
18651;SDS011;9455;54.302;10.124;2023-04-24T06:16:46;2.20;;;2.10;;
18651;SDS011;9455;54.302;10.124;2023-04-24T06:19:13;3.00;;;2.53;;
18651;SDS011;9455;54.302;10.124;2023-04-24T06:21:40;6.00;;;1.83;;
18651;SDS011;9455;54.302;10.124;2023-04-24T06:24:06;4.23;;;2.20;;
18651;SDS011;9455;54.302;10.124;2023-04-24T06:26:33;2.07;;;2.03;;
18651;SDS011;9455;54.302;10.124;2023-04-24T06:29:00;2.37;;;2.23;;
18651;SDS011;9455;54.302;10.124;2023-04-24T06:31:27;3.17;;;2.07;;
18651;SDS011;9455;54.302;10.124;2023-04-24T06:33:54;2.80;;;2.60;;
18651;SDS011;9455;54.302;10.124;2023-04-24T06:36:21;2.50;;;2.40;;
18651;SDS011;9455;54.302;10.124;2023-04-24T06:38:47;2.10;;;2.00;;
18651;SDS011;9455;54.302;10.124;2023-04-24T06:41:14;2.37;;;2.17;;
18651;SDS011;9455;54.302;10.124;2023-04-24T06:43:41;2.40;;;2.03;;
18651;SDS011;9455;54.302;10.124;2023-04-24T06:46:07;1.63;;;1.63;;
18651;SDS011;9455;54.302;10.124;2023-04-24T06:48:35;2.47;;;2.07;;
18651;SDS011;9455;54.302;10.124;2023-04-24T06:51:02;1.87;;;1.80;;
18651;SDS011;9455;54.302;10.124;2023-04-24T06:53:29;2.17;;;2.07;;
18651;SDS011;9455;54.302;10.124;2023-04-24T06:55:55;6.20;;;1.90;;
18651;SDS011;9455;54.302;10.124;2023-04-24T06:58:22;5.13;;;1.73;;
18651;SDS011;9455;54.302;10.124;2023-04-24T07:00:49;1.87;;;1.77;;
18651;SDS011;9455;54.302;10.124;2023-04-24T07:03:15;1.70;;;1.70;;
18651;SDS011;9455;54.302;10.124;2023-04-24T07:05:43;2.40;;;2.10;;
18651;SDS011;9455;54.302;10.124;2023-04-24T07:08:11;2.27;;;2.17;;
18651;SDS011;9455;54.302;10.124;2023-04-24T07:10:38;2.10;;;2.00;;
18651;SDS011;9455;54.302;10.124;2023-04-24T07:13:05;2.07;;;1.97;;
18651;SDS011;9455;54.302;10.124;2023-04-24T07:15:32;2.00;;;1.80;;
18651;SDS011;9455;54.302;10.124;2023-04-24T07:17:59;1.60;;;1.60;;
18651;SDS011;9455;54.302;10.124;2023-04-24T07:20:25;3.70;;;2.30;;
18651;SDS011;9455;54.302;10.124;2023-04-24T07:22:53;3.03;;;1.73;;
18651;SDS011;9455;54.302;10.124;2023-04-24T07:25:20;6.90;;;2.07;;
18651;SDS011;9455;54.302;10.124;2023-04-24T07:27:47;2.30;;;2.20;;
18651;SDS011;9455;54.302;10.124;2023-04-24T07:30:14;1.63;;;1.63;;
18651;SDS011;9455;54.302;10.124;2023-04-24T07:32:40;1.70;;;1.60;;
18651;SDS011;9455;54.302;10.124;2023-04-24T07:35:07;2.17;;;1.50;;
18651;SDS011;9455;54.302;10.124;2023-04-24T07:37:35;1.27;;;1.27;;
18651;SDS011;9455;54.302;10.124;2023-04-24T07:40:03;1.70;;;1.70;;
18651;SDS011;9455;54.302;10.124;2023-04-24T07:42:30;3.07;;;1.77;;
18651;SDS011;9455;54.302;10.124;2023-04-24T07:44:59;1.77;;;1.60;;
18651;SDS011;9455;54.302;10.124;2023-04-24T07:47:26;2.07;;;1.97;;
18651;SDS011;9455;54.302;10.124;2023-04-24T07:49:52;1.73;;;1.50;;
18651;SDS011;9455;54.302;10.124;2023-04-24T07:52:19;1.10;;;1.10;;
18651;SDS011;9455;54.302;10.124;2023-04-24T07:54:45;2.37;;;2.17;;
18651;SDS011;9455;54.302;10.124;2023-04-24T07:57:13;2.00;;;1.90;;
18651;SDS011;9455;54.302;10.124;2023-04-24T07:59:40;4.10;;;2.07;;
18651;SDS011;9455;54.302;10.124;2023-04-24T08:02:06;1.87;;;1.77;;
18651;SDS011;9455;54.302;10.124;2023-04-24T08:04:33;2.00;;;1.90;;
18651;SDS011;9455;54.302;10.124;2023-04-24T08:06:59;1.90;;;1.80;;
18651;SDS011;9455;54.302;10.124;2023-04-24T08:09:26;4.27;;;1.57;;
18651;SDS011;9455;54.302;10.124;2023-04-24T08:11:53;1.57;;;1.50;;
18651;SDS011;9455;54.302;10.124;2023-04-24T08:14:21;3.03;;;1.67;;
18651;SDS011;9455;54.302;10.124;2023-04-24T08:16:47;2.00;;;1.70;;
18651;SDS011;9455;54.302;10.124;2023-04-24T08:19:14;1.83;;;1.60;;
18651;SDS011;9455;54.302;10.124;2023-04-24T08:21:40;3.03;;;1.47;;
18651;SDS011;9455;54.302;10.124;2023-04-24T08:24:07;2.27;;;2.17;;
18651;SDS011;9455;54.302;10.124;2023-04-24T08:26:33;2.00;;;1.90;;
18651;SDS011;9455;54.302;10.124;2023-04-24T08:29:00;2.10;;;1.83;;
18651;SDS011;9455;54.302;10.124;2023-04-24T08:31:28;1.93;;;1.83;;
18651;SDS011;9455;54.302;10.124;2023-04-24T08:33:55;6.33;;;2.23;;
18651;SDS011;9455;54.302;10.124;2023-04-24T08:36:21;2.40;;;2.20;;
18651;SDS011;9455;54.302;10.124;2023-04-24T08:38:48;3.17;;;2.47;;
18651;SDS011;9455;54.302;10.124;2023-04-24T08:41:15;2.90;;;2.70;;
18651;SDS011;9455;54.302;10.124;2023-04-24T08:43:44;3.53;;;3.23;;
18651;SDS011;9455;54.302;10.124;2023-04-24T08:46:12;3.33;;;3.13;;
18651;SDS011;9455;54.302;10.124;2023-04-24T08:48:41;5.47;;;3.07;;
18651;SDS011;9455;54.302;10.124;2023-04-24T08:51:08;3.20;;;2.90;;
18651;SDS011;9455;54.302;10.124;2023-04-24T08:53:35;3.17;;;2.90;;
18651;SDS011;9455;54.302;10.124;2023-04-24T08:56:02;3.43;;;3.23;;
18651;SDS011;9455;54.302;10.124;2023-04-24T08:58:29;7.37;;;3.10;;
18651;SDS011;9455;54.302;10.124;2023-04-24T09:00:58;5.30;;;4.90;;
18651;SDS011;9455;54.302;10.124;2023-04-24T09:03:26;4.10;;;3.80;;
18651;SDS011;9455;54.302;10.124;2023-04-24T09:05:54;3.10;;;2.70;;
18651;SDS011;9455;54.302;10.124;2023-04-24T09:08:22;3.40;;;3.10;;
18651;SDS011;9455;54.302;10.124;2023-04-24T09:10:50;2.60;;;2.50;;
18651;SDS011;9455;54.302;10.124;2023-04-24T09:13:17;4.50;;;3.03;;
18651;SDS011;9455;54.302;10.124;2023-04-24T09:15:45;3.70;;;3.40;;
18651;SDS011;9455;54.302;10.124;2023-04-24T09:18:12;9.87;;;6.67;;
18651;SDS011;9455;54.302;10.124;2023-04-24T09:23:25;3.50;;;3.30;;
18651;SDS011;9455;54.302;10.124;2023-04-24T09:25:54;3.60;;;2.93;;
18651;SDS011;9455;54.302;10.124;2023-04-24T09:28:24;2.33;;;2.20;;
18651;SDS011;9455;54.302;10.124;2023-04-24T09:31:01;3.47;;;3.27;;
18651;SDS011;9455;54.302;10.124;2023-04-24T09:33:29;6.40;;;3.00;;
18651;SDS011;9455;54.302;10.124;2023-04-24T09:35:56;3.47;;;2.90;;
18651;SDS011;9455;54.302;10.124;2023-04-24T09:38:31;3.60;;;3.30;;
18651;SDS011;9455;54.302;10.124;2023-04-24T09:40:59;11.43;;;4.40;;
18651;SDS011;9455;54.302;10.124;2023-04-24T09:43:28;5.83;;;3.90;;
18651;SDS011;9455;54.302;10.124;2023-04-24T09:45:55;7.70;;;4.80;;
18651;SDS011;9455;54.302;10.124;2023-04-24T09:48:29;44.17;;;15.00;;
18651;SDS011;9455;54.302;10.124;2023-04-24T09:50:56;23.80;;;6.23;;
18651;SDS011;9455;54.302;10.124;2023-04-24T09:53:23;7.47;;;4.30;;
18651;SDS011;9455;54.302;10.124;2023-04-24T09:55:52;4.60;;;4.20;;
18651;SDS011;9455;54.302;10.124;2023-04-24T09:58:19;3.87;;;3.57;;
18651;SDS011;9455;54.302;10.124;2023-04-24T10:00:53;4.03;;;3.30;;
18651;SDS011;9455;54.302;10.124;2023-04-24T10:03:20;3.80;;;3.37;;
18651;SDS011;9455;54.302;10.124;2023-04-24T10:05:47;3.53;;;2.87;;
18651;SDS011;9455;54.302;10.124;2023-04-24T10:08:13;4.37;;;3.97;;
18651;SDS011;9455;54.302;10.124;2023-04-24T10:10:41;3.87;;;3.53;;
18651;SDS011;9455;54.302;10.124;2023-04-24T10:13:10;3.80;;;3.47;;
18651;SDS011;9455;54.302;10.124;2023-04-24T10:15:37;3.80;;;3.43;;
18651;SDS011;9455;54.302;10.124;2023-04-24T10:18:05;5.30;;;4.10;;
18651;SDS011;9455;54.302;10.124;2023-04-24T10:20:32;3.77;;;3.17;;
18651;SDS011;9455;54.302;10.124;2023-04-24T10:23:00;4.73;;;3.60;;
18651;SDS011;9455;54.302;10.124;2023-04-24T10:25:27;4.90;;;3.90;;
18651;SDS011;9455;54.302;10.124;2023-04-24T10:27:55;5.53;;;3.80;;
18651;SDS011;9455;54.302;10.124;2023-04-24T10:30:26;6.17;;;4.17;;
18651;SDS011;9455;54.302;10.124;2023-04-24T10:32:53;3.60;;;3.40;;
18651;SDS011;9455;54.302;10.124;2023-04-24T10:35:21;4.80;;;4.40;;
18651;SDS011;9455;54.302;10.124;2023-04-24T10:37:53;7.37;;;4.10;;
18651;SDS011;9455;54.302;10.124;2023-04-24T10:40:25;5.47;;;4.20;;
18651;SDS011;9455;54.302;10.124;2023-04-24T10:42:52;5.20;;;4.10;;
18651;SDS011;9455;54.302;10.124;2023-04-24T10:45:19;6.77;;;4.57;;
18651;SDS011;9455;54.302;10.124;2023-04-24T10:48:00;7.07;;;3.93;;
18651;SDS011;9455;54.302;10.124;2023-04-24T10:50:28;4.50;;;3.80;;
18651;SDS011;9455;54.302;10.124;2023-04-24T10:53:04;4.30;;;4.00;;
18651;SDS011;9455;54.302;10.124;2023-04-24T10:55:39;3.30;;;3.10;;
18651;SDS011;9455;54.302;10.124;2023-04-24T10:58:07;3.67;;;3.30;;
18651;SDS011;9455;54.302;10.124;2023-04-24T11:00:36;4.37;;;3.63;;
18651;SDS011;9455;54.302;10.124;2023-04-24T11:03:05;4.50;;;4.00;;
18651;SDS011;9455;54.302;10.124;2023-04-24T11:05:52;5.33;;;4.43;;
18651;SDS011;9455;54.302;10.124;2023-04-24T11:08:24;4.40;;;4.00;;
18651;SDS011;9455;54.302;10.124;2023-04-24T11:10:56;6.53;;;3.30;;
18651;SDS011;9455;54.302;10.124;2023-04-24T11:13:24;4.23;;;3.93;;
18651;SDS011;9455;54.302;10.124;2023-04-24T11:18:51;7.73;;;4.20;;
18651;SDS011;9455;54.302;10.124;2023-04-24T11:21:19;4.43;;;4.03;;
18651;SDS011;9455;54.302;10.124;2023-04-24T11:23:48;6.50;;;4.13;;
18651;SDS011;9455;54.302;10.124;2023-04-24T11:26:17;6.10;;;4.60;;
18651;SDS011;9455;54.302;10.124;2023-04-24T11:28:46;11.10;;;6.73;;
18651;SDS011;9455;54.302;10.124;2023-04-24T11:34:11;7.17;;;5.20;;
18651;SDS011;9455;54.302;10.124;2023-04-24T11:36:38;9.63;;;5.97;;
18651;SDS011;9455;54.302;10.124;2023-04-24T11:39:06;9.97;;;6.43;;
18651;SDS011;9455;54.302;10.124;2023-04-24T11:41:33;7.33;;;4.83;;
18651;SDS011;9455;54.302;10.124;2023-04-24T11:44:00;7.47;;;5.50;;
18651;SDS011;9455;54.302;10.124;2023-04-24T11:46:27;6.97;;;4.70;;
18651;SDS011;9455;54.302;10.124;2023-04-24T11:48:55;37.93;;;14.03;;
18651;SDS011;9455;54.302;10.124;2023-04-24T11:51:23;8.80;;;5.27;;
18651;SDS011;9455;54.302;10.124;2023-04-24T11:53:51;7.93;;;4.97;;
18651;SDS011;9455;54.302;10.124;2023-04-24T11:56:19;5.80;;;4.77;;
18651;SDS011;9455;54.302;10.124;2023-04-24T11:58:47;7.83;;;5.43;;
18651;SDS011;9455;54.302;10.124;2023-04-24T12:01:14;7.83;;;6.10;;
18651;SDS011;9455;54.302;10.124;2023-04-24T12:03:40;10.57;;;5.97;;
18651;SDS011;9455;54.302;10.124;2023-04-24T12:06:09;6.57;;;5.93;;
18651;SDS011;9455;54.302;10.124;2023-04-24T12:08:38;9.70;;;5.67;;
18651;SDS011;9455;54.302;10.124;2023-04-24T12:11:06;8.90;;;5.00;;
18651;SDS011;9455;54.302;10.124;2023-04-24T12:13:33;11.10;;;5.40;;
18651;SDS011;9455;54.302;10.124;2023-04-24T12:16:01;9.63;;;6.23;;
18651;SDS011;9455;54.302;10.124;2023-04-24T12:18:29;11.20;;;5.43;;
18651;SDS011;9455;54.302;10.124;2023-04-24T12:21:01;10.03;;;5.80;;
18651;SDS011;9455;54.302;10.124;2023-04-24T12:23:43;7.10;;;5.53;;
18651;SDS011;9455;54.302;10.124;2023-04-24T12:26:10;9.57;;;5.50;;
18651;SDS011;9455;54.302;10.124;2023-04-24T12:28:38;7.33;;;5.93;;
18651;SDS011;9455;54.302;10.124;2023-04-24T12:31:05;8.10;;;5.93;;
18651;SDS011;9455;54.302;10.124;2023-04-24T12:33:33;7.87;;;5.80;;
18651;SDS011;9455;54.302;10.124;2023-04-24T12:36:00;7.23;;;5.50;;
18651;SDS011;9455;54.302;10.124;2023-04-24T12:38:27;13.90;;;5.87;;
18651;SDS011;9455;54.302;10.124;2023-04-24T12:41:03;12.77;;;5.40;;
18651;SDS011;9455;54.302;10.124;2023-04-24T12:43:31;8.90;;;5.23;;
18651;SDS011;9455;54.302;10.124;2023-04-24T12:45:57;10.80;;;5.17;;
18651;SDS011;9455;54.302;10.124;2023-04-24T12:48:25;5.37;;;4.67;;
18651;SDS011;9455;54.302;10.124;2023-04-24T12:50:51;12.00;;;4.80;;
18651;SDS011;9455;54.302;10.124;2023-04-24T12:53:18;7.40;;;5.43;;
18651;SDS011;9455;54.302;10.124;2023-04-24T12:55:44;10.70;;;6.17;;
18651;SDS011;9455;54.302;10.124;2023-04-24T12:58:13;8.23;;;5.10;;
18651;SDS011;9455;54.302;10.124;2023-04-24T13:00:40;9.20;;;5.23;;
18651;SDS011;9455;54.302;10.124;2023-04-24T13:03:08;8.50;;;5.30;;
18651;SDS011;9455;54.302;10.124;2023-04-24T13:05:34;7.23;;;5.33;;
18651;SDS011;9455;54.302;10.124;2023-04-24T13:08:01;6.00;;;5.40;;
18651;SDS011;9455;54.302;10.124;2023-04-24T13:10:28;10.07;;;5.87;;
18651;SDS011;9455;54.302;10.124;2023-04-24T13:12:54;7.07;;;5.47;;
18651;SDS011;9455;54.302;10.124;2023-04-24T13:15:22;10.43;;;7.03;;
18651;SDS011;9455;54.302;10.124;2023-04-24T13:17:50;9.87;;;6.67;;
18651;SDS011;9455;54.302;10.124;2023-04-24T13:20:16;14.47;;;6.80;;
18651;SDS011;9455;54.302;10.124;2023-04-24T13:22:43;11.90;;;7.20;;
18651;SDS011;9455;54.302;10.124;2023-04-24T13:25:10;13.27;;;6.50;;
18651;SDS011;9455;54.302;10.124;2023-04-24T13:27:38;11.97;;;7.10;;
18651;SDS011;9455;54.302;10.124;2023-04-24T13:30:05;16.43;;;7.43;;
18651;SDS011;9455;54.302;10.124;2023-04-24T13:32:34;14.23;;;7.03;;
18651;SDS011;9455;54.302;10.124;2023-04-24T13:35:01;11.73;;;6.47;;
18651;SDS011;9455;54.302;10.124;2023-04-24T13:37:28;15.77;;;7.13;;
18651;SDS011;9455;54.302;10.124;2023-04-24T13:39:55;9.90;;;6.87;;
18651;SDS011;9455;54.302;10.124;2023-04-24T13:42:21;13.27;;;6.67;;
18651;SDS011;9455;54.302;10.124;2023-04-24T13:44:48;14.43;;;6.77;;
18651;SDS011;9455;54.302;10.124;2023-04-24T13:47:16;14.53;;;6.43;;
18651;SDS011;9455;54.302;10.124;2023-04-24T13:49:43;14.17;;;7.70;;
18651;SDS011;9455;54.302;10.124;2023-04-24T13:52:10;12.90;;;7.03;;
18651;SDS011;9455;54.302;10.124;2023-04-24T13:54:37;10.60;;;6.43;;
18651;SDS011;9455;54.302;10.124;2023-04-24T13:57:03;16.03;;;7.53;;
18651;SDS011;9455;54.302;10.124;2023-04-24T13:59:31;16.30;;;7.03;;
18651;SDS011;9455;54.302;10.124;2023-04-24T14:01:58;11.77;;;7.57;;
18651;SDS011;9455;54.302;10.124;2023-04-24T14:04:24;12.63;;;6.10;;
18651;SDS011;9455;54.302;10.124;2023-04-24T14:06:52;11.30;;;6.13;;
18651;SDS011;9455;54.302;10.124;2023-04-24T14:09:19;15.83;;;6.83;;
18651;SDS011;9455;54.302;10.124;2023-04-24T14:11:45;9.40;;;6.43;;
18651;SDS011;9455;54.302;10.124;2023-04-24T14:14:12;9.20;;;6.60;;
18651;SDS011;9455;54.302;10.124;2023-04-24T14:16:39;7.70;;;5.20;;
18651;SDS011;9455;54.302;10.124;2023-04-24T14:19:05;7.83;;;5.63;;
18651;SDS011;9455;54.302;10.124;2023-04-24T14:21:32;11.93;;;6.30;;
18651;SDS011;9455;54.302;10.124;2023-04-24T14:24:00;6.07;;;5.37;;
18651;SDS011;9455;54.302;10.124;2023-04-24T14:26:26;6.27;;;4.73;;
18651;SDS011;9455;54.302;10.124;2023-04-24T14:28:53;7.43;;;5.37;;
18651;SDS011;9455;54.302;10.124;2023-04-24T14:31:20;8.37;;;5.90;;
18651;SDS011;9455;54.302;10.124;2023-04-24T14:33:46;12.40;;;6.37;;
18651;SDS011;9455;54.302;10.124;2023-04-24T14:36:13;9.13;;;5.97;;
18651;SDS011;9455;54.302;10.124;2023-04-24T14:38:40;6.90;;;4.97;;
18651;SDS011;9455;54.302;10.124;2023-04-24T14:41:07;5.97;;;5.00;;
18651;SDS011;9455;54.302;10.124;2023-04-24T14:43:36;7.27;;;5.57;;
18651;SDS011;9455;54.302;10.124;2023-04-24T14:46:03;9.83;;;4.80;;
18651;SDS011;9455;54.302;10.124;2023-04-24T14:48:30;12.00;;;5.00;;
18651;SDS011;9455;54.302;10.124;2023-04-24T14:50:57;5.93;;;4.87;;
18651;SDS011;9455;54.302;10.124;2023-04-24T14:53:24;6.23;;;4.60;;
18651;SDS011;9455;54.302;10.124;2023-04-24T14:55:50;10.77;;;5.67;;